sensor_id;sensor_type;location;lat;lon;timestamp;P1;durP1;ratioP1;P2;durP2;ratioP2
49392;SDS011;35268;42.642;23.308;2022-11-20T00:00:56;3.67;;;1.00;;
49392;SDS011;35268;42.642;23.308;2022-11-20T00:03:21;3.53;;;1.27;;
49392;SDS011;35268;42.642;23.308;2022-11-20T00:05:47;7.47;;;1.52;;
49392;SDS011;35268;42.642;23.308;2022-11-20T00:08:12;2.33;;;0.88;;
49392;SDS011;35268;42.642;23.308;2022-11-20T00:10:41;3.20;;;0.90;;
49392;SDS011;35268;42.642;23.308;2022-11-20T00:13:06;5.95;;;1.15;;
49392;SDS011;35268;42.642;23.308;2022-11-20T00:15:32;7.50;;;1.40;;
49392;SDS011;35268;42.642;23.308;2022-11-20T00:17:58;3.38;;;0.98;;
49392;SDS011;35268;42.642;23.308;2022-11-20T00:20:24;5.07;;;1.40;;
49392;SDS011;35268;42.642;23.308;2022-11-20T00:22:50;3.40;;;0.98;;
49392;SDS011;35268;42.642;23.308;2022-11-20T00:25:16;3.10;;;1.27;;
49392;SDS011;35268;42.642;23.308;2022-11-20T00:27:41;2.28;;;0.70;;
49392;SDS011;35268;42.642;23.308;2022-11-20T00:30:07;5.43;;;1.25;;
49392;SDS011;35268;42.642;23.308;2022-11-20T00:32:33;8.07;;;1.45;;
49392;SDS011;35268;42.642;23.308;2022-11-20T00:34:58;4.35;;;1.08;;
49392;SDS011;35268;42.642;23.308;2022-11-20T00:37:23;3.53;;;2.00;;
49392;SDS011;35268;42.642;23.308;2022-11-20T00:39:49;5.32;;;0.73;;
49392;SDS011;35268;42.642;23.308;2022-11-20T00:42:14;2.10;;;0.93;;
49392;SDS011;35268;42.642;23.308;2022-11-20T00:44:40;3.88;;;0.80;;
49392;SDS011;35268;42.642;23.308;2022-11-20T00:47:05;2.10;;;0.60;;
49392;SDS011;35268;42.642;23.308;2022-11-20T00:49:30;3.47;;;0.88;;
49392;SDS011;35268;42.642;23.308;2022-11-20T00:51:56;2.47;;;0.80;;
49392;SDS011;35268;42.642;23.308;2022-11-20T00:54:21;2.92;;;0.90;;
49392;SDS011;35268;42.642;23.308;2022-11-20T00:56:47;3.85;;;1.00;;
49392;SDS011;35268;42.642;23.308;2022-11-20T00:59:12;4.13;;;1.10;;
49392;SDS011;35268;42.642;23.308;2022-11-20T01:01:38;3.88;;;0.80;;
49392;SDS011;35268;42.642;23.308;2022-11-20T01:04:03;2.70;;;1.00;;
49392;SDS011;35268;42.642;23.308;2022-11-20T01:06:30;6.30;;;0.98;;
49392;SDS011;35268;42.642;23.308;2022-11-20T01:09:07;7.10;;;1.00;;
49392;SDS011;35268;42.642;23.308;2022-11-20T01:11:36;4.53;;;0.90;;
49392;SDS011;35268;42.642;23.308;2022-11-20T01:14:05;2.28;;;0.63;;
49392;SDS011;35268;42.642;23.308;2022-11-20T01:16:40;6.43;;;1.10;;
49392;SDS011;35268;42.642;23.308;2022-11-20T01:19:09;4.75;;;0.80;;
49392;SDS011;35268;42.642;23.308;2022-11-20T01:21:37;2.83;;;0.95;;
49392;SDS011;35268;42.642;23.308;2022-11-20T01:24:04;1.55;;;0.55;;
49392;SDS011;35268;42.642;23.308;2022-11-20T01:26:33;2.20;;;0.80;;
49392;SDS011;35268;42.642;23.308;2022-11-20T01:29:00;3.13;;;0.77;;
49392;SDS011;35268;42.642;23.308;2022-11-20T01:31:27;2.83;;;0.70;;
49392;SDS011;35268;42.642;23.308;2022-11-20T01:33:58;4.20;;;1.00;;
49392;SDS011;35268;42.642;23.308;2022-11-20T01:36:27;3.50;;;1.08;;
49392;SDS011;35268;42.642;23.308;2022-11-20T01:38:54;2.15;;;0.70;;
49392;SDS011;35268;42.642;23.308;2022-11-20T01:41:22;1.48;;;0.50;;
49392;SDS011;35268;42.642;23.308;2022-11-20T01:44:08;3.78;;;0.85;;
49392;SDS011;35268;42.642;23.308;2022-11-20T01:46:37;2.50;;;0.75;;
49392;SDS011;35268;42.642;23.308;2022-11-20T01:49:10;3.97;;;0.70;;
49392;SDS011;35268;42.642;23.308;2022-11-20T01:51:46;6.38;;;0.80;;
49392;SDS011;35268;42.642;23.308;2022-11-20T01:54:19;1.50;;;0.70;;
49392;SDS011;35268;42.642;23.308;2022-11-20T01:56:48;6.07;;;0.90;;
49392;SDS011;35268;42.642;23.308;2022-11-20T01:59:19;3.75;;;0.85;;
49392;SDS011;35268;42.642;23.308;2022-11-20T02:01:47;5.75;;;0.70;;
49392;SDS011;35268;42.642;23.308;2022-11-20T02:04:13;1.45;;;0.60;;
49392;SDS011;35268;42.642;23.308;2022-11-20T02:06:42;3.10;;;0.82;;
49392;SDS011;35268;42.642;23.308;2022-11-20T02:09:11;3.55;;;1.65;;
49392;SDS011;35268;42.642;23.308;2022-11-20T02:11:36;2.92;;;1.02;;
49392;SDS011;35268;42.642;23.308;2022-11-20T02:14:02;1.80;;;0.70;;
49392;SDS011;35268;42.642;23.308;2022-11-20T02:16:29;1.17;;;0.68;;
49392;SDS011;35268;42.642;23.308;2022-11-20T02:18:59;5.72;;;0.80;;
49392;SDS011;35268;42.642;23.308;2022-11-20T02:24:01;0.95;;;0.55;;
49392;SDS011;35268;42.642;23.308;2022-11-20T02:26:31;2.92;;;0.82;;
49392;SDS011;35268;42.642;23.308;2022-11-20T02:29:00;0.63;;;0.45;;
49392;SDS011;35268;42.642;23.308;2022-11-20T02:31:27;2.75;;;0.65;;
49392;SDS011;35268;42.642;23.308;2022-11-20T02:33:56;1.55;;;0.52;;
49392;SDS011;35268;42.642;23.308;2022-11-20T02:36:22;2.25;;;0.60;;
49392;SDS011;35268;42.642;23.308;2022-11-20T02:38:51;2.95;;;0.70;;
49392;SDS011;35268;42.642;23.308;2022-11-20T02:41:16;3.10;;;0.60;;
49392;SDS011;35268;42.642;23.308;2022-11-20T02:43:42;4.68;;;0.65;;
49392;SDS011;35268;42.642;23.308;2022-11-20T02:46:07;3.00;;;0.80;;
49392;SDS011;35268;42.642;23.308;2022-11-20T02:48:33;7.35;;;1.30;;
49392;SDS011;35268;42.642;23.308;2022-11-20T02:50:59;4.88;;;0.90;;
49392;SDS011;35268;42.642;23.308;2022-11-20T02:53:24;5.03;;;0.70;;
49392;SDS011;35268;42.642;23.308;2022-11-20T02:55:50;2.78;;;0.82;;
49392;SDS011;35268;42.642;23.308;2022-11-20T02:58:15;2.72;;;1.05;;
49392;SDS011;35268;42.642;23.308;2022-11-20T03:00:41;1.95;;;0.80;;
49392;SDS011;35268;42.642;23.308;2022-11-20T03:03:06;3.83;;;0.75;;
49392;SDS011;35268;42.642;23.308;2022-11-20T03:05:31;4.80;;;1.33;;
49392;SDS011;35268;42.642;23.308;2022-11-20T03:07:57;2.28;;;0.80;;
49392;SDS011;35268;42.642;23.308;2022-11-20T03:10:23;3.67;;;0.80;;
49392;SDS011;35268;42.642;23.308;2022-11-20T03:12:52;3.72;;;0.95;;
49392;SDS011;35268;42.642;23.308;2022-11-20T03:15:19;6.35;;;1.02;;
49392;SDS011;35268;42.642;23.308;2022-11-20T03:17:44;4.40;;;0.80;;
49392;SDS011;35268;42.642;23.308;2022-11-20T03:20:10;2.85;;;0.77;;
49392;SDS011;35268;42.642;23.308;2022-11-20T03:22:36;6.50;;;0.90;;
49392;SDS011;35268;42.642;23.308;2022-11-20T03:25:01;2.55;;;1.05;;
49392;SDS011;35268;42.642;23.308;2022-11-20T03:27:31;4.78;;;0.80;;
49392;SDS011;35268;42.642;23.308;2022-11-20T03:29:58;5.63;;;1.45;;
49392;SDS011;35268;42.642;23.308;2022-11-20T03:32:23;2.47;;;0.63;;
49392;SDS011;35268;42.642;23.308;2022-11-20T03:34:49;2.88;;;1.00;;
49392;SDS011;35268;42.642;23.308;2022-11-20T03:37:14;3.92;;;1.10;;
49392;SDS011;35268;42.642;23.308;2022-11-20T03:39:40;5.47;;;1.10;;
49392;SDS011;35268;42.642;23.308;2022-11-20T03:42:05;1.90;;;0.90;;
49392;SDS011;35268;42.642;23.308;2022-11-20T03:44:50;3.28;;;0.70;;
49392;SDS011;35268;42.642;23.308;2022-11-20T03:47:16;7.18;;;1.00;;
49392;SDS011;35268;42.642;23.308;2022-11-20T03:49:41;3.63;;;0.82;;
49392;SDS011;35268;42.642;23.308;2022-11-20T03:52:07;3.60;;;0.88;;
49392;SDS011;35268;42.642;23.308;2022-11-20T03:54:32;1.52;;;0.77;;
49392;SDS011;35268;42.642;23.308;2022-11-20T03:56:58;6.15;;;0.90;;
49392;SDS011;35268;42.642;23.308;2022-11-20T03:59:23;1.77;;;0.70;;
49392;SDS011;35268;42.642;23.308;2022-11-20T04:01:48;3.58;;;0.90;;
49392;SDS011;35268;42.642;23.308;2022-11-20T04:04:14;3.33;;;0.90;;
49392;SDS011;35268;42.642;23.308;2022-11-20T04:06:39;7.80;;;0.82;;
49392;SDS011;35268;42.642;23.308;2022-11-20T04:09:05;4.05;;;0.90;;
49392;SDS011;35268;42.642;23.308;2022-11-20T04:11:32;1.27;;;0.55;;
49392;SDS011;35268;42.642;23.308;2022-11-20T04:13:59;2.92;;;0.80;;
49392;SDS011;35268;42.642;23.308;2022-11-20T04:16:29;3.80;;;1.00;;
49392;SDS011;35268;42.642;23.308;2022-11-20T04:18:57;2.08;;;0.90;;
49392;SDS011;35268;42.642;23.308;2022-11-20T04:21:23;2.50;;;0.80;;
49392;SDS011;35268;42.642;23.308;2022-11-20T04:23:50;5.00;;;0.90;;
49392;SDS011;35268;42.642;23.308;2022-11-20T04:26:17;2.45;;;1.15;;
49392;SDS011;35268;42.642;23.308;2022-11-20T04:28:43;4.43;;;0.73;;
49392;SDS011;35268;42.642;23.308;2022-11-20T04:31:10;2.80;;;1.33;;
49392;SDS011;35268;42.642;23.308;2022-11-20T04:33:40;1.42;;;0.70;;
49392;SDS011;35268;42.642;23.308;2022-11-20T04:36:12;3.33;;;1.27;;
49392;SDS011;35268;42.642;23.308;2022-11-20T04:38:40;1.67;;;0.82;;
49392;SDS011;35268;42.642;23.308;2022-11-20T04:41:06;3.53;;;1.13;;
49392;SDS011;35268;42.642;23.308;2022-11-20T04:43:40;4.03;;;1.00;;
49392;SDS011;35268;42.642;23.308;2022-11-20T04:46:06;2.67;;;0.93;;
49392;SDS011;35268;42.642;23.308;2022-11-20T04:48:31;3.95;;;0.90;;
49392;SDS011;35268;42.642;23.308;2022-11-20T04:50:57;6.10;;;1.13;;
49392;SDS011;35268;42.642;23.308;2022-11-20T04:53:22;4.60;;;1.35;;
49392;SDS011;35268;42.642;23.308;2022-11-20T04:55:48;4.00;;;0.68;;
49392;SDS011;35268;42.642;23.308;2022-11-20T04:58:14;8.85;;;0.90;;
49392;SDS011;35268;42.642;23.308;2022-11-20T05:00:40;1.35;;;0.60;;
49392;SDS011;35268;42.642;23.308;2022-11-20T05:03:05;3.03;;;0.70;;
49392;SDS011;35268;42.642;23.308;2022-11-20T05:05:33;1.27;;;0.60;;
49392;SDS011;35268;42.642;23.308;2022-11-20T05:07:59;3.22;;;1.17;;
49392;SDS011;35268;42.642;23.308;2022-11-20T05:10:25;4.53;;;0.75;;
49392;SDS011;35268;42.642;23.308;2022-11-20T05:12:51;1.80;;;0.50;;
49392;SDS011;35268;42.642;23.308;2022-11-20T05:15:17;3.63;;;0.60;;
49392;SDS011;35268;42.642;23.308;2022-11-20T05:17:49;2.20;;;0.60;;
49392;SDS011;35268;42.642;23.308;2022-11-20T05:20:15;7.28;;;2.17;;
49392;SDS011;35268;42.642;23.308;2022-11-20T05:22:41;3.60;;;1.10;;
49392;SDS011;35268;42.642;23.308;2022-11-20T05:25:07;1.52;;;0.73;;
49392;SDS011;35268;42.642;23.308;2022-11-20T05:27:32;3.25;;;1.30;;
49392;SDS011;35268;42.642;23.308;2022-11-20T05:29:58;5.68;;;1.23;;
49392;SDS011;35268;42.642;23.308;2022-11-20T05:32:23;3.40;;;1.40;;
49392;SDS011;35268;42.642;23.308;2022-11-20T05:34:50;5.72;;;2.38;;
49392;SDS011;35268;42.642;23.308;2022-11-20T05:37:16;3.70;;;0.85;;
49392;SDS011;35268;42.642;23.308;2022-11-20T05:39:41;3.67;;;0.93;;
49392;SDS011;35268;42.642;23.308;2022-11-20T05:42:07;3.58;;;0.88;;
49392;SDS011;35268;42.642;23.308;2022-11-20T05:44:51;6.53;;;0.80;;
49392;SDS011;35268;42.642;23.308;2022-11-20T05:47:17;4.57;;;0.80;;
49392;SDS011;35268;42.642;23.308;2022-11-20T05:49:42;2.03;;;0.73;;
49392;SDS011;35268;42.642;23.308;2022-11-20T05:52:08;3.33;;;0.70;;
49392;SDS011;35268;42.642;23.308;2022-11-20T05:54:33;1.17;;;0.50;;
49392;SDS011;35268;42.642;23.308;2022-11-20T05:56:59;3.80;;;0.73;;
49392;SDS011;35268;42.642;23.308;2022-11-20T05:59:24;1.42;;;0.55;;
49392;SDS011;35268;42.642;23.308;2022-11-20T06:01:50;3.10;;;0.93;;
49392;SDS011;35268;42.642;23.308;2022-11-20T06:04:15;3.10;;;0.82;;
49392;SDS011;35268;42.642;23.308;2022-11-20T06:06:41;3.30;;;0.73;;
49392;SDS011;35268;42.642;23.308;2022-11-20T06:09:06;1.75;;;0.90;;
49392;SDS011;35268;42.642;23.308;2022-11-20T06:11:32;3.25;;;0.80;;
49392;SDS011;35268;42.642;23.308;2022-11-20T06:13:57;4.18;;;1.00;;
49392;SDS011;35268;42.642;23.308;2022-11-20T06:16:23;5.18;;;0.77;;
49392;SDS011;35268;42.642;23.308;2022-11-20T06:18:48;6.03;;;0.90;;
49392;SDS011;35268;42.642;23.308;2022-11-20T06:21:15;2.25;;;0.70;;
49392;SDS011;35268;42.642;23.308;2022-11-20T06:23:42;2.55;;;0.85;;
49392;SDS011;35268;42.642;23.308;2022-11-20T06:26:08;2.60;;;0.70;;
49392;SDS011;35268;42.642;23.308;2022-11-20T06:28:38;5.57;;;0.68;;
49392;SDS011;35268;42.642;23.308;2022-11-20T06:31:03;2.92;;;0.70;;
49392;SDS011;35268;42.642;23.308;2022-11-20T06:33:30;5.13;;;0.88;;
49392;SDS011;35268;42.642;23.308;2022-11-20T06:35:58;2.35;;;0.77;;
49392;SDS011;35268;42.642;23.308;2022-11-20T06:38:26;5.35;;;1.42;;
49392;SDS011;35268;42.642;23.308;2022-11-20T06:40:52;1.67;;;0.80;;
49392;SDS011;35268;42.642;23.308;2022-11-20T06:43:18;3.33;;;0.70;;
49392;SDS011;35268;42.642;23.308;2022-11-20T06:45:43;2.40;;;0.60;;
49392;SDS011;35268;42.642;23.308;2022-11-20T06:48:08;2.05;;;0.70;;
49392;SDS011;35268;42.642;23.308;2022-11-20T06:50:35;2.55;;;0.60;;
49392;SDS011;35268;42.642;23.308;2022-11-20T06:53:02;1.63;;;0.70;;
49392;SDS011;35268;42.642;23.308;2022-11-20T06:55:29;3.72;;;0.85;;
49392;SDS011;35268;42.642;23.308;2022-11-20T06:57:56;1.85;;;0.40;;
49392;SDS011;35268;42.642;23.308;2022-11-20T07:00:21;1.67;;;0.40;;
49392;SDS011;35268;42.642;23.308;2022-11-20T07:02:47;3.50;;;0.75;;
49392;SDS011;35268;42.642;23.308;2022-11-20T07:05:12;4.60;;;0.93;;
49392;SDS011;35268;42.642;23.308;2022-11-20T07:07:38;4.07;;;0.77;;
49392;SDS011;35268;42.642;23.308;2022-11-20T07:10:03;2.70;;;1.10;;
49392;SDS011;35268;42.642;23.308;2022-11-20T07:12:29;4.03;;;0.80;;
49392;SDS011;35268;42.642;23.308;2022-11-20T07:14:55;3.13;;;0.90;;
49392;SDS011;35268;42.642;23.308;2022-11-20T07:17:20;2.45;;;1.13;;
49392;SDS011;35268;42.642;23.308;2022-11-20T07:19:46;3.40;;;1.20;;
49392;SDS011;35268;42.642;23.308;2022-11-20T07:22:11;2.63;;;0.82;;
49392;SDS011;35268;42.642;23.308;2022-11-20T07:24:36;1.27;;;0.60;;
49392;SDS011;35268;42.642;23.308;2022-11-20T07:27:02;2.72;;;0.80;;
49392;SDS011;35268;42.642;23.308;2022-11-20T07:29:29;3.67;;;1.10;;
49392;SDS011;35268;42.642;23.308;2022-11-20T07:31:54;4.20;;;0.75;;
49392;SDS011;35268;42.642;23.308;2022-11-20T07:34:21;5.35;;;2.10;;
49392;SDS011;35268;42.642;23.308;2022-11-20T07:36:46;4.78;;;1.02;;
49392;SDS011;35268;42.642;23.308;2022-11-20T07:39:12;6.95;;;1.05;;
49392;SDS011;35268;42.642;23.308;2022-11-20T07:41:37;2.10;;;0.98;;
49392;SDS011;35268;42.642;23.308;2022-11-20T07:44:02;4.60;;;1.08;;
49392;SDS011;35268;42.642;23.308;2022-11-20T07:46:28;12.10;;;1.42;;
49392;SDS011;35268;42.642;23.308;2022-11-20T07:48:54;5.45;;;1.05;;
49392;SDS011;35268;42.642;23.308;2022-11-20T07:51:19;3.28;;;0.85;;
49392;SDS011;35268;42.642;23.308;2022-11-20T07:53:44;3.38;;;1.00;;
49392;SDS011;35268;42.642;23.308;2022-11-20T07:56:10;8.45;;;1.80;;
49392;SDS011;35268;42.642;23.308;2022-11-20T07:58:35;5.20;;;0.63;;
49392;SDS011;35268;42.642;23.308;2022-11-20T08:01:04;5.35;;;1.27;;
49392;SDS011;35268;42.642;23.308;2022-11-20T08:03:31;4.45;;;1.23;;
49392;SDS011;35268;42.642;23.308;2022-11-20T08:06:00;6.00;;;1.13;;
49392;SDS011;35268;42.642;23.308;2022-11-20T08:08:26;7.13;;;1.42;;
49392;SDS011;35268;42.642;23.308;2022-11-20T08:10:53;3.65;;;1.15;;
49392;SDS011;35268;42.642;23.308;2022-11-20T08:13:38;6.75;;;1.33;;
49392;SDS011;35268;42.642;23.308;2022-11-20T08:16:22;4.97;;;1.50;;
49392;SDS011;35268;42.642;23.308;2022-11-20T08:18:48;14.07;;;1.17;;
49392;SDS011;35268;42.642;23.308;2022-11-20T08:21:14;6.95;;;1.40;;
49392;SDS011;35268;42.642;23.308;2022-11-20T08:23:40;14.52;;;1.55;;
49392;SDS011;35268;42.642;23.308;2022-11-20T08:26:05;11.40;;;0.95;;
49392;SDS011;35268;42.642;23.308;2022-11-20T08:28:31;5.30;;;1.25;;
49392;SDS011;35268;42.642;23.308;2022-11-20T08:30:59;13.70;;;1.30;;
49392;SDS011;35268;42.642;23.308;2022-11-20T08:33:26;6.63;;;1.15;;
49392;SDS011;35268;42.642;23.308;2022-11-20T08:35:51;6.05;;;1.48;;
49392;SDS011;35268;42.642;23.308;2022-11-20T08:38:16;7.95;;;1.70;;
49392;SDS011;35268;42.642;23.308;2022-11-20T08:40:42;7.53;;;2.00;;
49392;SDS011;35268;42.642;23.308;2022-11-20T08:43:27;5.32;;;1.65;;
49392;SDS011;35268;42.642;23.308;2022-11-20T08:45:53;5.00;;;1.45;;
49392;SDS011;35268;42.642;23.308;2022-11-20T08:48:18;9.70;;;0.98;;
49392;SDS011;35268;42.642;23.308;2022-11-20T08:50:44;8.88;;;1.30;;
49392;SDS011;35268;42.642;23.308;2022-11-20T08:53:09;4.70;;;1.17;;
49392;SDS011;35268;42.642;23.308;2022-11-20T08:55:34;10.35;;;1.10;;
49392;SDS011;35268;42.642;23.308;2022-11-20T08:58:04;4.22;;;1.42;;
49392;SDS011;35268;42.642;23.308;2022-11-20T09:00:31;3.33;;;1.10;;
49392;SDS011;35268;42.642;23.308;2022-11-20T09:02:57;9.02;;;1.85;;
49392;SDS011;35268;42.642;23.308;2022-11-20T09:05:23;8.85;;;1.45;;
49392;SDS011;35268;42.642;23.308;2022-11-20T09:07:49;6.07;;;1.65;;
49392;SDS011;35268;42.642;23.308;2022-11-20T09:10:14;4.28;;;1.13;;
49392;SDS011;35268;42.642;23.308;2022-11-20T09:12:40;11.20;;;2.05;;
49392;SDS011;35268;42.642;23.308;2022-11-20T09:15:06;2.90;;;0.90;;
49392;SDS011;35268;42.642;23.308;2022-11-20T09:17:31;0.68;;;0.50;;
49392;SDS011;35268;42.642;23.308;2022-11-20T09:19:57;6.45;;;0.88;;
49392;SDS011;35268;42.642;23.308;2022-11-20T09:22:23;2.45;;;1.45;;
49392;SDS011;35268;42.642;23.308;2022-11-20T09:24:49;5.55;;;0.75;;
49392;SDS011;35268;42.642;23.308;2022-11-20T09:27:14;3.05;;;0.50;;
49392;SDS011;35268;42.642;23.308;2022-11-20T09:29:45;1.55;;;0.40;;
49392;SDS011;35268;42.642;23.308;2022-11-20T09:32:10;1.58;;;0.47;;
49392;SDS011;35268;42.642;23.308;2022-11-20T09:34:36;0.68;;;0.40;;
49392;SDS011;35268;42.642;23.308;2022-11-20T09:37:01;7.20;;;0.60;;
49392;SDS011;35268;42.642;23.308;2022-11-20T09:39:27;5.65;;;0.90;;
49392;SDS011;35268;42.642;23.308;2022-11-20T09:47:43;10.88;;;1.60;;
49392;SDS011;35268;42.642;23.308;2022-11-20T09:55:55;4.05;;;1.58;;
49392;SDS011;35268;42.642;23.308;2022-11-20T10:00:55;5.30;;;2.78;;
49392;SDS011;35268;42.642;23.308;2022-11-20T10:03:39;8.45;;;4.05;;
49392;SDS011;35268;42.642;23.308;2022-11-20T10:06:12;10.68;;;4.05;;
49392;SDS011;35268;42.642;23.308;2022-11-20T10:08:48;8.23;;;3.10;;
49392;SDS011;35268;42.642;23.308;2022-11-20T10:16:51;7.40;;;2.60;;
49392;SDS011;35268;42.642;23.308;2022-11-20T10:27:40;5.82;;;2.10;;
49392;SDS011;35268;42.642;23.308;2022-11-20T10:30:31;5.97;;;2.35;;
49392;SDS011;35268;42.642;23.308;2022-11-20T10:38:00;10.85;;;2.47;;
49392;SDS011;35268;42.642;23.308;2022-11-20T10:48:04;6.90;;;2.50;;
49392;SDS011;35268;42.642;23.308;2022-11-20T10:50:41;7.88;;;2.45;;
49392;SDS011;35268;42.642;23.308;2022-11-20T10:56:19;15.77;;;6.50;;
49392;SDS011;35268;42.642;23.308;2022-11-20T11:01:38;11.25;;;3.67;;
49392;SDS011;35268;42.642;23.308;2022-11-20T11:04:07;8.00;;;3.17;;
49392;SDS011;35268;42.642;23.308;2022-11-20T11:07:41;13.57;;;4.05;;
49392;SDS011;35268;42.642;23.308;2022-11-20T11:10:16;8.90;;;3.10;;
49392;SDS011;35268;42.642;23.308;2022-11-20T11:12:45;8.35;;;2.63;;
49392;SDS011;35268;42.642;23.308;2022-11-20T11:15:14;6.60;;;1.10;;
49392;SDS011;35268;42.642;23.308;2022-11-20T11:18:00;3.13;;;0.80;;
49392;SDS011;35268;42.642;23.308;2022-11-20T11:20:25;2.85;;;0.95;;
49392;SDS011;35268;42.642;23.308;2022-11-20T11:22:56;1.58;;;0.80;;
49392;SDS011;35268;42.642;23.308;2022-11-20T11:30:43;4.18;;;0.52;;
49392;SDS011;35268;42.642;23.308;2022-11-20T11:33:10;1.90;;;0.60;;
49392;SDS011;35268;42.642;23.308;2022-11-20T11:35:44;1.55;;;0.60;;
49392;SDS011;35268;42.642;23.308;2022-11-20T11:38:13;3.45;;;0.60;;
49392;SDS011;35268;42.642;23.308;2022-11-20T11:40:41;2.50;;;0.80;;
49392;SDS011;35268;42.642;23.308;2022-11-20T11:43:16;2.90;;;0.63;;
49392;SDS011;35268;42.642;23.308;2022-11-20T11:46:16;1.50;;;0.40;;
49392;SDS011;35268;42.642;23.308;2022-11-20T11:49:20;6.90;;;1.23;;
49392;SDS011;35268;42.642;23.308;2022-11-20T11:54:34;12.20;;;1.10;;
49392;SDS011;35268;42.642;23.308;2022-11-20T11:57:59;6.00;;;1.10;;
49392;SDS011;35268;42.642;23.308;2022-11-20T12:00:09;5.57;;;1.20;;
49392;SDS011;35268;42.642;23.308;2022-11-20T12:05:17;4.03;;;0.82;;
49392;SDS011;35268;42.642;23.308;2022-11-20T12:07:47;2.53;;;0.75;;
49392;SDS011;35268;42.642;23.308;2022-11-20T12:10:43;2.33;;;0.95;;
49392;SDS011;35268;42.642;23.308;2022-11-20T12:13:18;8.63;;;0.98;;
49392;SDS011;35268;42.642;23.308;2022-11-20T12:15:50;2.50;;;0.70;;
49392;SDS011;35268;42.642;23.308;2022-11-20T12:18:20;6.05;;;1.15;;
49392;SDS011;35268;42.642;23.308;2022-11-20T12:34:18;3.75;;;0.75;;
49392;SDS011;35268;42.642;23.308;2022-11-20T12:58:06;3.25;;;1.00;;
49392;SDS011;35268;42.642;23.308;2022-11-20T13:00:35;5.85;;;1.15;;
49392;SDS011;35268;42.642;23.308;2022-11-20T13:08:21;5.72;;;1.73;;
49392;SDS011;35268;42.642;23.308;2022-11-20T13:10:51;4.65;;;1.52;;
49392;SDS011;35268;42.642;23.308;2022-11-20T13:19:39;8.65;;;1.83;;
49392;SDS011;35268;42.642;23.308;2022-11-20T13:22:05;8.50;;;2.58;;
49392;SDS011;35268;42.642;23.308;2022-11-20T13:24:31;11.35;;;2.50;;
49392;SDS011;35268;42.642;23.308;2022-11-20T13:27:01;8.80;;;2.08;;
49392;SDS011;35268;42.642;23.308;2022-11-20T13:29:28;9.75;;;2.67;;
49392;SDS011;35268;42.642;23.308;2022-11-20T13:34:50;7.20;;;2.28;;
49392;SDS011;35268;42.642;23.308;2022-11-20T13:37:58;8.63;;;2.50;;
49392;SDS011;35268;42.642;23.308;2022-11-20T13:42:37;4.88;;;2.08;;
49392;SDS011;35268;42.642;23.308;2022-11-20T13:45:28;10.38;;;3.20;;
49392;SDS011;35268;42.642;23.308;2022-11-20T13:47:56;7.45;;;2.72;;
49392;SDS011;35268;42.642;23.308;2022-11-20T13:53:08;9.35;;;3.30;;
49392;SDS011;35268;42.642;23.308;2022-11-20T13:55:40;8.13;;;3.28;;
49392;SDS011;35268;42.642;23.308;2022-11-20T14:00:47;8.98;;;3.10;;
49392;SDS011;35268;42.642;23.308;2022-11-20T14:03:18;9.15;;;3.38;;
49392;SDS011;35268;42.642;23.308;2022-11-20T14:05:52;7.43;;;3.50;;
49392;SDS011;35268;42.642;23.308;2022-11-20T14:08:36;6.43;;;2.85;;
49392;SDS011;35268;42.642;23.308;2022-11-20T14:11:05;11.60;;;3.65;;
49392;SDS011;35268;42.642;23.308;2022-11-20T14:13:55;11.88;;;3.83;;
49392;SDS011;35268;42.642;23.308;2022-11-20T14:16:24;22.58;;;4.68;;
49392;SDS011;35268;42.642;23.308;2022-11-20T14:18:51;11.68;;;5.20;;
49392;SDS011;35268;42.642;23.308;2022-11-20T14:21:27;13.15;;;5.30;;
49392;SDS011;35268;42.642;23.308;2022-11-20T14:24:06;15.82;;;5.00;;
49392;SDS011;35268;42.642;23.308;2022-11-20T14:26:41;14.60;;;5.93;;
49392;SDS011;35268;42.642;23.308;2022-11-20T14:29:21;13.68;;;6.55;;
49392;SDS011;35268;42.642;23.308;2022-11-20T14:31:53;14.93;;;6.05;;
49392;SDS011;35268;42.642;23.308;2022-11-20T14:34:27;8.15;;;3.45;;
49392;SDS011;35268;42.642;23.308;2022-11-20T14:36:56;14.25;;;5.07;;
49392;SDS011;35268;42.642;23.308;2022-11-20T14:39:34;21.17;;;8.10;;
49392;SDS011;35268;42.642;23.308;2022-11-20T14:42:01;12.57;;;5.78;;
49392;SDS011;35268;42.642;23.308;2022-11-20T14:44:40;8.70;;;3.65;;
49392;SDS011;35268;42.642;23.308;2022-11-20T14:47:08;9.52;;;3.47;;
49392;SDS011;35268;42.642;23.308;2022-11-20T14:49:37;3.90;;;1.90;;
49392;SDS011;35268;42.642;23.308;2022-11-20T14:52:19;8.15;;;1.60;;
49392;SDS011;35268;42.642;23.308;2022-11-20T14:54:57;3.83;;;1.60;;
49392;SDS011;35268;42.642;23.308;2022-11-20T15:02:46;8.63;;;1.67;;
49392;SDS011;35268;42.642;23.308;2022-11-20T15:05:14;7.60;;;2.00;;
49392;SDS011;35268;42.642;23.308;2022-11-20T15:07:42;8.07;;;2.75;;
49392;SDS011;35268;42.642;23.308;2022-11-20T15:12:45;4.28;;;1.33;;
49392;SDS011;35268;42.642;23.308;2022-11-20T15:15:12;4.10;;;1.60;;
49392;SDS011;35268;42.642;23.308;2022-11-20T15:17:42;4.15;;;1.52;;
49392;SDS011;35268;42.642;23.308;2022-11-20T15:20:14;6.75;;;2.00;;
49392;SDS011;35268;42.642;23.308;2022-11-20T15:22:41;3.95;;;1.67;;
49392;SDS011;35268;42.642;23.308;2022-11-20T15:27:44;4.40;;;1.55;;
49392;SDS011;35268;42.642;23.308;2022-11-20T15:30:15;8.52;;;1.70;;
49392;SDS011;35268;42.642;23.308;2022-11-20T15:32:42;7.55;;;1.60;;
49392;SDS011;35268;42.642;23.308;2022-11-20T15:35:08;4.25;;;1.92;;
49392;SDS011;35268;42.642;23.308;2022-11-20T15:37:35;7.03;;;1.98;;
49392;SDS011;35268;42.642;23.308;2022-11-20T15:40:02;9.38;;;2.08;;
49392;SDS011;35268;42.642;23.308;2022-11-20T15:42:27;10.32;;;1.90;;
49392;SDS011;35268;42.642;23.308;2022-11-20T15:44:53;5.95;;;2.20;;
49392;SDS011;35268;42.642;23.308;2022-11-20T15:47:19;5.85;;;2.53;;
49392;SDS011;35268;42.642;23.308;2022-11-20T15:49:49;7.20;;;2.17;;
49392;SDS011;35268;42.642;23.308;2022-11-20T15:52:15;6.00;;;1.75;;
49392;SDS011;35268;42.642;23.308;2022-11-20T15:54:41;5.13;;;1.65;;
49392;SDS011;35268;42.642;23.308;2022-11-20T15:57:14;5.82;;;1.80;;
49392;SDS011;35268;42.642;23.308;2022-11-20T15:59:39;6.35;;;1.83;;
49392;SDS011;35268;42.642;23.308;2022-11-20T16:02:13;5.13;;;1.83;;
49392;SDS011;35268;42.642;23.308;2022-11-20T16:04:39;4.70;;;1.63;;
49392;SDS011;35268;42.642;23.308;2022-11-20T16:07:05;3.85;;;1.60;;
49392;SDS011;35268;42.642;23.308;2022-11-20T16:09:31;4.90;;;2.00;;
49392;SDS011;35268;42.642;23.308;2022-11-20T16:11:57;8.07;;;2.15;;
49392;SDS011;35268;42.642;23.308;2022-11-20T16:14:24;5.22;;;1.90;;
49392;SDS011;35268;42.642;23.308;2022-11-20T16:17:08;5.85;;;2.40;;
49392;SDS011;35268;42.642;23.308;2022-11-20T16:19:34;6.07;;;2.10;;
49392;SDS011;35268;42.642;23.308;2022-11-20T16:21:59;7.30;;;2.30;;
49392;SDS011;35268;42.642;23.308;2022-11-20T16:24:27;9.05;;;2.60;;
49392;SDS011;35268;42.642;23.308;2022-11-20T16:26:53;7.38;;;2.05;;
49392;SDS011;35268;42.642;23.308;2022-11-20T16:29:19;4.57;;;2.28;;
49392;SDS011;35268;42.642;23.308;2022-11-20T16:31:44;11.80;;;2.50;;
49392;SDS011;35268;42.642;23.308;2022-11-20T16:34:10;8.75;;;3.55;;
49392;SDS011;35268;42.642;23.308;2022-11-20T16:36:35;9.77;;;4.28;;
49392;SDS011;35268;42.642;23.308;2022-11-20T16:39:03;5.80;;;2.50;;
49392;SDS011;35268;42.642;23.308;2022-11-20T16:41:30;5.93;;;2.30;;
49392;SDS011;35268;42.642;23.308;2022-11-20T16:43:58;6.50;;;2.75;;
49392;SDS011;35268;42.642;23.308;2022-11-20T16:46:31;10.50;;;3.38;;
49392;SDS011;35268;42.642;23.308;2022-11-20T16:51:24;7.70;;;2.88;;